createdAt,value
2022-09-30T00:01:53.609Z,100158.72
2022-09-30T00:04:23.703Z,100166.72
2022-09-30T00:06:53.358Z,100163.22
2022-09-30T00:09:22.393Z,100163.03
2022-09-30T00:11:50.971Z,100150.72
2022-09-30T00:14:22.634Z,100156.88
2022-09-30T00:16:51.207Z,100150.06
2022-09-30T00:19:19.517Z,100156.06
2022-09-30T00:21:47.795Z,100156.06
2022-09-30T00:24:16.013Z,100153.41
2022-09-30T00:26:44.295Z,100149.03
2022-09-30T00:29:13.023Z,100147.06
2022-09-30T00:31:42.842Z,100149.03
2022-09-30T00:34:12.251Z,100156.06
2022-09-30T00:36:43.737Z,100151.72
2022-09-30T00:39:14.931Z,100150.91
2022-09-30T00:41:44.070Z,100152.72
2022-09-30T00:44:44.545Z,100156.22
2022-09-30T00:47:44.671Z,100154.38
2022-09-30T00:50:37.129Z,100158.03
2022-09-30T00:53:11.797Z,100154.38
2022-09-30T00:55:56.851Z,100154.38
2022-09-30T00:58:31.312Z,100151.72
2022-09-30T01:01:01.891Z,100153.56
2022-09-30T01:03:32.763Z,100158.88
2022-09-30T01:06:01.280Z,100163.38
2022-09-30T01:08:29.932Z,100157.03
2022-09-30T01:10:58.128Z,100154.38
2022-09-30T01:13:32.204Z,100156.22
2022-09-30T01:16:44.931Z,100159.69
2022-09-30T01:19:32.303Z,100161.56
2022-09-30T01:22:30.764Z,100161.72
2022-09-30T01:25:35.220Z,100148.41
2022-09-30T01:28:33.004Z,100163.38
2022-09-30T01:31:16.299Z,100153.56
2022-09-30T01:33:50.760Z,100157.22
2022-09-30T01:36:34.523Z,100151.06
2022-09-30T01:39:14.349Z,100141.22
2022-09-30T01:41:53.235Z,100143.88
2022-09-30T01:44:34.599Z,100152.72
2022-09-30T01:47:12.894Z,100142.91
2022-09-30T01:49:46.024Z,100146.53
2022-09-30T01:52:17.804Z,100140.25
2022-09-30T01:54:50.456Z,100148.22
2022-09-30T01:57:25.560Z,100147.38
2022-09-30T01:59:59.235Z,100158.03
2022-09-30T02:02:31.437Z,100165.03
2022-09-30T02:05:03.415Z,100159.69
2022-09-30T02:07:36.992Z,100166.03
2022-09-30T02:10:13.153Z,100161.72
2022-09-30T02:12:46.771Z,100172.38
2022-09-30T02:15:19.001Z,100177.72
2022-09-30T02:17:52.689Z,100165.19
2022-09-30T02:20:25.166Z,100169.72
2022-09-30T02:22:59.011Z,100168.72
2022-09-30T02:25:33.852Z,100171.38
2022-09-30T02:28:07.590Z,100172.38
2022-09-30T02:30:37.451Z,100181.03
2022-09-30T02:33:12.552Z,100172.38
2022-09-30T02:35:47.786Z,100180.22
2022-09-30T02:38:20.246Z,100179.38
2022-09-30T02:40:52.695Z,100182.03
2022-09-30T02:43:22.671Z,100189.00
2022-09-30T02:46:00.778Z,100184.69
2022-09-30T02:48:36.792Z,100175.69
2022-09-30T02:51:09.352Z,100171.38
2022-09-30T02:53:43.462Z,100178.53
2022-09-30T02:56:23.719Z,100165.19
2022-09-30T02:58:54.067Z,100164.22
2022-09-30T03:01:22.495Z,100161.72
2022-09-30T03:03:54.766Z,100161.72
2022-09-30T03:06:23.284Z,100158.03
2022-09-30T03:08:53.158Z,100165.03
2022-09-30T03:11:24.524Z,100164.38
2022-09-30T03:14:19.321Z,100176.69
2022-09-30T03:17:19.268Z,100177.06
2022-09-30T03:20:09.161Z,100177.56
2022-09-30T03:22:57.472Z,100167.75
2022-09-30T03:25:38.083Z,100166.06
2022-09-30T03:28:19.500Z,100170.41
2022-09-30T03:30:53.971Z,100177.56
2022-09-30T03:33:26.519Z,100177.56
2022-09-30T03:36:03.553Z,100171.38
2022-09-30T03:38:41.070Z,100172.22
2022-09-30T03:41:16.625Z,100165.88
2022-09-30T03:43:49.884Z,100173.88
2022-09-30T03:46:24.131Z,100169.41
2022-09-30T03:48:56.435Z,100176.38
2022-09-30T03:51:26.407Z,100177.41
2022-09-30T03:53:55.529Z,100183.38
2022-09-30T03:56:28.487Z,100190.38
2022-09-30T03:58:57.554Z,100196.53
2022-09-30T04:01:26.390Z,100200.88
2022-09-30T04:03:55.480Z,100204.38
2022-09-30T04:06:26.243Z,100206.06
2022-09-30T04:08:55.076Z,100209.38
2022-09-30T04:11:23.305Z,100206.06
2022-09-30T04:13:51.460Z,100199.53
2022-09-30T04:16:19.777Z,100193.38
2022-09-30T04:18:48.069Z,100195.22
2022-09-30T04:21:16.876Z,100195.38
2022-09-30T04:23:46.622Z,100206.06
2022-09-30T04:26:16.560Z,100202.53
2022-09-30T04:28:45.033Z,100205.22
2022-09-30T04:31:14.582Z,100222.84
2022-09-30T04:33:42.957Z,100224.72
2022-09-30T04:36:11.248Z,100227.53
2022-09-30T04:38:39.455Z,100237.19
2022-09-30T04:41:09.946Z,100227.38
2022-09-30T04:43:38.161Z,100231.00
2022-09-30T04:46:06.854Z,100223.03
2022-09-30T04:48:35.072Z,100231.00
2022-09-30T04:51:03.299Z,100231.00
2022-09-30T04:53:31.889Z,100224.03
2022-09-30T04:56:01.139Z,100224.03
2022-09-30T04:58:36.790Z,100225.69
2022-09-30T05:01:10.020Z,100237.19
2022-09-30T05:03:39.112Z,100242.53
2022-09-30T05:06:08.394Z,100236.34
2022-09-30T05:08:40.643Z,100236.34
2022-09-30T05:11:17.555Z,100224.72
2022-09-30T05:13:49.489Z,100215.88
2022-09-30T05:16:18.810Z,100207.03
2022-09-30T05:18:47.276Z,100192.88
2022-09-30T05:21:18.218Z,100193.69
2022-09-30T05:23:46.683Z,100191.03
2022-09-30T05:26:15.545Z,100212.53
2022-09-30T05:28:45.375Z,100221.19
2022-09-30T05:31:15.309Z,100232.88
2022-09-30T05:33:43.897Z,100242.53
2022-09-30T05:36:15.429Z,100254.03
2022-09-30T05:38:43.986Z,100244.34
2022-09-30T05:41:15.081Z,100248.88
2022-09-30T05:43:46.827Z,100254.34
2022-09-30T05:46:17.220Z,100258.00
2022-09-30T05:48:45.983Z,100256.34
2022-09-30T05:55:11.141Z,100261.50
2022-09-30T05:57:39.749Z,100271.69
2022-09-30T06:00:08.925Z,100268.34
2022-09-30T06:02:40.119Z,100279.16
2022-09-30T06:05:09.353Z,100287.31
2022-09-30T06:07:38.518Z,100299.00
2022-09-30T06:10:09.317Z,100309.66
2022-09-30T06:12:40.032Z,100316.63
2022-09-30T06:15:09.738Z,100326.47
2022-09-30T06:17:38.593Z,100331.81
2022-09-30T06:20:08.380Z,100326.47
2022-09-30T06:22:37.312Z,100318.31
2022-09-30T06:25:06.576Z,100318.84
2022-09-30T06:27:35.479Z,100317.84
2022-09-30T06:30:05.914Z,100321.50
2022-09-30T06:32:34.835Z,100324.16
2022-09-30T06:35:04.258Z,100324.16
2022-09-30T06:37:32.712Z,100327.66
2022-09-30T06:40:01.017Z,100337.50
2022-09-30T06:42:29.424Z,100342.00
2022-09-30T06:44:57.872Z,100338.63
2022-09-30T06:47:27.917Z,100340.00
2022-09-30T06:49:59.043Z,100346.16
2022-09-30T06:52:27.773Z,100350.66
2022-09-30T06:54:57.574Z,100346.31
2022-09-30T06:57:27.980Z,100347.00
2022-09-30T06:59:56.403Z,100339.00
2022-09-30T07:02:24.760Z,100331.66
2022-09-30T07:04:54.504Z,100328.00
2022-09-30T07:07:23.038Z,100325.34
2022-09-30T07:09:51.522Z,100326.16
2022-09-30T07:12:20.536Z,100326.16
2022-09-30T07:14:48.854Z,100325.34
2022-09-30T07:17:17.295Z,100317.34
2022-09-30T07:19:45.747Z,100315.66
2022-09-30T07:22:32.254Z,100320.00
2022-09-30T07:25:03.931Z,100324.66
2022-09-30T07:27:34.631Z,100327.47
2022-09-30T07:30:16.087Z,100320.50
2022-09-30T07:32:46.757Z,100325.66
2022-09-30T07:35:15.067Z,100319.69
2022-09-30T07:37:46.488Z,100329.50
2022-09-30T07:40:15.314Z,100324.16
2022-09-30T07:42:46.117Z,100325.00
2022-09-30T07:45:16.102Z,100319.69
2022-09-30T07:47:44.423Z,100319.31
2022-09-30T07:50:15.557Z,100316.81
2022-09-30T07:52:45.203Z,100314.66
2022-09-30T07:55:13.452Z,100324.31
2022-09-30T07:57:41.686Z,100320.69
2022-09-30T08:00:30.281Z,100322.00
2022-09-30T08:02:59.155Z,100324.34
2022-09-30T08:05:27.358Z,100322.50
2022-09-30T08:07:56.968Z,100318.00
2022-09-30T08:10:25.246Z,100315.97
2022-09-30T08:12:56.079Z,100317.66
2022-09-30T08:15:27.314Z,100320.16
2022-09-30T08:17:55.580Z,100319.31
2022-09-30T08:20:24.303Z,100314.00
2022-09-30T08:22:54.210Z,100320.81
2022-09-30T08:25:24.680Z,100321.66
2022-09-30T08:27:53.289Z,100315.31
2022-09-30T08:30:21.749Z,100316.34
2022-09-30T08:32:50.145Z,100326.00
2022-09-30T08:35:18.605Z,100323.31
2022-09-30T08:37:47.069Z,100326.66
2022-09-30T08:40:26.176Z,100324.00
2022-09-30T08:43:14.702Z,100323.00
2022-09-30T08:45:52.638Z,100327.31
2022-09-30T08:48:34.286Z,100325.31
2022-09-30T08:51:10.227Z,100316.31
2022-09-30T08:53:44.166Z,100318.97
2022-09-30T08:56:22.858Z,100318.00
2022-09-30T08:58:57.205Z,100325.00
2022-09-30T09:01:30.601Z,100332.84
2022-09-30T09:04:00.364Z,100328.31
2022-09-30T09:06:35.645Z,100330.00
2022-09-30T09:09:32.843Z,100326.47
2022-09-30T09:12:11.372Z,100333.47
2022-09-30T09:14:53.230Z,100345.66
2022-09-30T09:17:38.595Z,100343.97
2022-09-30T09:20:15.667Z,100348.16
2022-09-30T09:22:46.091Z,100356.66
2022-09-30T09:25:17.957Z,100356.53
2022-09-30T09:27:54.133Z,100350.47
2022-09-30T09:30:24.302Z,100341.34
2022-09-30T09:32:56.288Z,100332.34
2022-09-30T09:35:36.728Z,100336.50
2022-09-30T09:38:26.432Z,100327.66
2022-09-30T09:41:19.539Z,100321.34
2022-09-30T09:43:58.498Z,100321.16
2022-09-30T09:46:29.668Z,100321.34
2022-09-30T09:49:29.688Z,100325.81
2022-09-30T09:52:31.280Z,100335.66
2022-09-30T09:55:00.982Z,100334.00
2022-09-30T09:57:31.329Z,100332.19
2022-09-30T10:00:23.040Z,100338.31
2022-09-30T10:03:03.998Z,100342.69
2022-09-30T10:05:39.817Z,100341.66
2022-09-30T10:08:15.582Z,100343.16
2022-09-30T10:10:48.279Z,100338.66
2022-09-30T10:13:22.508Z,100348.34
2022-09-30T10:15:54.305Z,100357.19
2022-09-30T10:18:27.475Z,100346.34
2022-09-30T10:20:59.198Z,100338.34
2022-09-30T10:23:30.866Z,100335.84
2022-09-30T10:26:03.448Z,100342.19
2022-09-30T10:28:33.928Z,100339.50
2022-09-30T10:31:08.690Z,100328.00
2022-09-30T10:33:45.144Z,100324.31
2022-09-30T10:36:17.727Z,100333.34
2022-09-30T10:39:01.149Z,100330.66
2022-09-30T10:41:35.228Z,100330.66
2022-09-30T10:44:06.341Z,100322.66
2022-09-30T10:46:40.849Z,100322.66
2022-09-30T10:49:11.996Z,100315.66
2022-09-30T10:51:41.505Z,100304.16
2022-09-30T10:54:44.704Z,100315.66
2022-09-30T10:57:17.074Z,100314.81
2022-09-30T10:59:46.941Z,100315.00
2022-09-30T11:02:26.908Z,100324.00
2022-09-30T11:05:09.216Z,100333.66
2022-09-30T11:07:44.068Z,100340.00
2022-09-30T11:10:29.757Z,100332.66
2022-09-30T11:13:07.698Z,100335.50
2022-09-30T11:15:45.224Z,100339.00
2022-09-30T11:18:20.661Z,100340.66
2022-09-30T11:20:55.762Z,100344.19
2022-09-30T11:23:29.538Z,100337.00
2022-09-30T11:26:04.777Z,100335.00
2022-09-30T11:28:58.289Z,100326.97
2022-09-30T11:31:32.470Z,100332.16
2022-09-30T11:34:21.980Z,100340.00
2022-09-30T11:37:02.134Z,100333.97
2022-09-30T11:40:31.810Z,100327.50
2022-09-30T11:43:26.903Z,100323.13
2022-09-30T11:46:26.555Z,100321.16
2022-09-30T11:49:11.389Z,100301.78
2022-09-30T11:51:49.938Z,100292.28
2022-09-30T11:54:30.280Z,100287.63
2022-09-30T11:57:07.167Z,100299.63
2022-09-30T11:59:43.106Z,100308.47
2022-09-30T12:02:23.570Z,100313.31
2022-09-30T12:04:57.839Z,100306.31
2022-09-30T12:07:36.734Z,100305.63
2022-09-30T12:10:16.900Z,100304.63
2022-09-30T12:12:49.542Z,100302.97
2022-09-30T12:15:23.939Z,100312.81
2022-09-30T12:17:59.271Z,100319.81
2022-09-30T12:20:31.881Z,100320.63
2022-09-30T12:23:08.176Z,100313.63
2022-09-30T12:25:42.942Z,100308.81
2022-09-30T12:28:40.691Z,100307.97
2022-09-30T12:31:27.125Z,100317.78
2022-09-30T12:34:07.088Z,100313.31
2022-09-30T12:37:02.092Z,100315.97
2022-09-30T12:40:05.651Z,100306.31
2022-09-30T12:43:06.666Z,100314.97
2022-09-30T12:46:00.837Z,100334.66
2022-09-30T12:48:34.867Z,100332.66
2022-09-30T12:51:03.764Z,100332.28
2022-09-30T12:53:35.049Z,100337.63
2022-09-30T12:56:08.648Z,100325.13
2022-09-30T12:58:40.337Z,100319.63
2022-09-30T13:01:18.661Z,100321.28
2022-09-30T13:03:51.744Z,100323.78
2022-09-30T13:06:22.164Z,100318.44
2022-09-30T13:09:19.070Z,100317.63
2022-09-30T13:11:48.278Z,100313.28
2022-09-30T13:14:34.450Z,100310.59
2022-09-30T13:17:24.352Z,100301.97
2022-09-30T13:19:54.484Z,100297.44
2022-09-30T13:22:58.869Z,100309.25
2022-09-30T13:25:27.377Z,100306.97
2022-09-30T13:28:29.939Z,100315.31
2022-09-30T13:31:15.829Z,100323.31
2022-09-30T13:33:48.656Z,100328.66
2022-09-30T13:36:32.028Z,100331.31
2022-09-30T13:39:23.148Z,100322.97
2022-09-30T13:42:09.821Z,100318.78
2022-09-30T13:44:48.619Z,100322.63
2022-09-30T13:47:23.127Z,100321.63
2022-09-30T13:49:58.748Z,100328.66
2022-09-30T13:52:31.314Z,100314.28
2022-09-30T13:55:06.712Z,100311.44
2022-09-30T13:57:45.431Z,100313.94
2022-09-30T14:00:16.972Z,100305.78
2022-09-30T14:03:18.294Z,100316.44
2022-09-30T14:06:00.548Z,100313.94
2022-09-30T14:09:01.231Z,100320.13
2022-09-30T14:11:51.084Z,100308.63
2022-09-30T14:14:36.866Z,100321.28
2022-09-30T14:17:28.173Z,100324.13
2022-09-30T14:20:21.144Z,100325.63
2022-09-30T14:22:50.860Z,100325.63
2022-09-30T14:25:21.307Z,100320.63
2022-09-30T14:28:03.445Z,100337.63
2022-09-30T14:30:38.710Z,100342.97
2022-09-30T14:33:13.097Z,100342.97
2022-09-30T14:35:43.342Z,100346.66
2022-09-30T14:38:21.301Z,100334.16
2022-09-30T14:40:52.987Z,100334.16
2022-09-30T14:43:28.203Z,100321.81
2022-09-30T14:46:00.386Z,100338.00
2022-09-30T14:48:33.049Z,100340.50
2022-09-30T14:51:06.173Z,100333.13
2022-09-30T14:53:41.233Z,100324.13
2022-09-30T14:56:22.336Z,100342.63
2022-09-30T14:58:52.696Z,100344.31
2022-09-30T15:01:23.066Z,100344.50
2022-09-30T15:03:55.690Z,100350.00
2022-09-30T15:06:27.571Z,100352.66
2022-09-30T15:09:03.637Z,100363.00
2022-09-30T15:11:39.361Z,100362.00
2022-09-30T15:14:14.437Z,100369.31
2022-09-30T15:16:50.591Z,100360.34
2022-09-30T15:19:24.376Z,100370.16
2022-09-30T15:21:55.742Z,100366.66
2022-09-30T15:24:28.713Z,100369.31
2022-09-30T15:26:57.595Z,100366.66
2022-09-30T15:29:27.600Z,100367.66
2022-09-30T15:32:02.647Z,100370.50
2022-09-30T15:34:32.366Z,100375.19
2022-09-30T15:37:07.098Z,100382.34
2022-09-30T15:39:58.822Z,100379.84
2022-09-30T15:42:35.643Z,100388.88
2022-09-30T15:45:06.743Z,100389.69
2022-09-30T15:47:54.389Z,100398.38
2022-09-30T15:50:37.329Z,100405.03
2022-09-30T15:53:06.885Z,100404.03
2022-09-30T15:55:43.801Z,100408.72
2022-09-30T15:58:37.778Z,100412.56
2022-09-30T16:01:16.799Z,100408.22
2022-09-30T16:03:51.071Z,100424.06
2022-09-30T16:06:25.886Z,100422.41
2022-09-30T16:09:01.566Z,100422.06
2022-09-30T16:11:36.747Z,100423.03
2022-09-30T16:14:09.498Z,100419.72
2022-09-30T16:16:39.820Z,100423.41
2022-09-30T16:19:17.243Z,100423.41
2022-09-30T16:21:51.046Z,100427.91
2022-09-30T16:24:50.415Z,100428.06
2022-09-30T16:27:38.919Z,100430.72
2022-09-30T16:30:11.179Z,100433.41
2022-09-30T16:32:41.821Z,100434.41
2022-09-30T16:35:18.408Z,100438.06
2022-09-30T16:37:46.854Z,100435.59
2022-09-30T16:40:22.018Z,100443.59
2022-09-30T16:42:52.344Z,100448.09
2022-09-30T16:45:21.155Z,100443.41
2022-09-30T16:47:50.955Z,100443.41
2022-09-30T16:50:30.629Z,100449.56
2022-09-30T16:52:59.251Z,100451.22
2022-09-30T16:55:28.237Z,100442.25
2022-09-30T16:57:59.600Z,100434.72
2022-09-30T17:00:29.569Z,100434.41
2022-09-30T17:03:00.128Z,100429.75
2022-09-30T17:05:28.621Z,100428.41
2022-09-30T17:07:59.197Z,100431.72
2022-09-30T17:10:29.813Z,100432.72
2022-09-30T17:13:01.527Z,100430.06
2022-09-30T17:15:33.489Z,100431.06
2022-09-30T17:18:07.083Z,100438.91
2022-09-30T17:20:36.930Z,100433.56
2022-09-30T17:23:07.463Z,100439.72
2022-09-30T17:25:36.948Z,100434.38
2022-09-30T17:28:07.320Z,100443.41
2022-09-30T17:30:35.980Z,100449.41
2022-09-30T17:33:07.378Z,100448.56
2022-09-30T17:35:35.968Z,100442.72
2022-09-30T17:38:09.166Z,100445.88
2022-09-30T17:40:55.752Z,100445.72
2022-09-30T17:43:32.397Z,100441.22
2022-09-30T17:46:01.648Z,100444.75
2022-09-30T17:48:30.269Z,100442.06
2022-09-30T17:51:00.129Z,100442.88
2022-09-30T17:53:29.518Z,100439.03
2022-09-30T17:56:02.633Z,100447.03
2022-09-30T17:58:32.644Z,100456.06
2022-09-30T18:01:01.516Z,100446.06
2022-09-30T18:03:32.564Z,100458.56
2022-09-30T18:06:01.350Z,100459.59
2022-09-30T18:08:30.756Z,100462.25
2022-09-30T18:10:59.401Z,100459.41
2022-09-30T18:13:29.519Z,100461.56
2022-09-30T18:16:02.036Z,100464.44
2022-09-30T18:18:31.084Z,100463.56
2022-09-30T18:21:05.427Z,100468.06
2022-09-30T18:23:34.207Z,100464.75
2022-09-30T18:26:02.560Z,100463.75
2022-09-30T18:28:31.337Z,100475.44
2022-09-30T18:31:06.443Z,100468.41
2022-09-30T18:33:35.276Z,100464.75
2022-09-30T18:36:04.764Z,100464.75
2022-09-30T18:38:33.528Z,100465.56
2022-09-30T18:41:02.309Z,100469.09
2022-09-30T18:43:30.922Z,100468.06
2022-09-30T18:46:04.356Z,100466.41
2022-09-30T18:48:39.461Z,100472.59
2022-09-30T18:51:08.913Z,100477.94
2022-09-30T18:53:37.013Z,100474.25
2022-09-30T18:56:05.845Z,100468.06
2022-09-30T18:58:34.287Z,100472.59
2022-09-30T19:01:06.231Z,100469.09
2022-09-30T19:03:36.542Z,100473.41
2022-09-30T19:06:08.590Z,100468.06
2022-09-30T19:08:37.077Z,100473.59
2022-09-30T19:11:13.009Z,100487.78
2022-09-30T19:13:43.054Z,100487.78
2022-09-30T19:16:15.029Z,100498.47
2022-09-30T19:18:43.364Z,100493.13
2022-09-30T19:21:13.590Z,100493.13
2022-09-30T19:23:42.359Z,100491.47
2022-09-30T19:26:14.489Z,100489.59
2022-09-30T19:28:43.368Z,100488.63
2022-09-30T19:31:17.010Z,100489.44
2022-09-30T19:33:55.807Z,100493.97
2022-09-30T19:36:27.259Z,100496.47
2022-09-30T19:39:10.673Z,100492.28
2022-09-30T19:41:40.828Z,100495.94
2022-09-30T19:44:09.177Z,100500.44
2022-09-30T19:46:39.079Z,100495.09
2022-09-30T19:49:10.537Z,100498.78
2022-09-30T19:51:39.001Z,100501.78
2022-09-30T19:54:07.760Z,100497.47
2022-09-30T19:56:37.078Z,100504.63
2022-09-30T19:59:06.012Z,100504.78
2022-09-30T20:01:36.433Z,100503.13
2022-09-30T20:04:06.611Z,100501.47
2022-09-30T20:06:36.687Z,100499.63
2022-09-30T20:09:08.750Z,100511.31
2022-09-30T20:11:39.402Z,100519.47
2022-09-30T20:14:27.207Z,100528.16
2022-09-30T20:16:55.900Z,100526.66
2022-09-30T20:19:25.996Z,100520.50
2022-09-30T20:21:55.213Z,100533.84
2022-09-30T20:24:23.892Z,100526.84
2022-09-30T20:26:52.605Z,100518.81
2022-09-30T20:29:20.950Z,100525.16
2022-09-30T20:31:50.831Z,100519.81
2022-09-30T20:34:20.399Z,100528.81
2022-09-30T20:36:50.088Z,100522.63
2022-09-30T20:39:18.445Z,100526.16
2022-09-30T20:41:49.336Z,100528.81
2022-09-30T20:44:21.265Z,100516.47
2022-09-30T20:46:49.908Z,100520.97
2022-09-30T20:49:18.211Z,100519.16
2022-09-30T20:51:46.490Z,100521.81
2022-09-30T20:54:16.517Z,100519.16
2022-09-30T20:57:06.409Z,100516.47
2022-09-30T20:59:33.642Z,100524.50
2022-09-30T21:02:01.995Z,100521.81
2022-09-30T21:04:30.290Z,100522.81
2022-09-30T21:07:00.810Z,100527.16
2022-09-30T21:09:35.103Z,100531.66
2022-09-30T21:12:03.953Z,100530.81
2022-09-30T21:14:32.270Z,100529.16
2022-09-30T21:17:00.924Z,100523.81
2022-09-30T21:19:29.221Z,100523.81
2022-09-30T21:22:00.188Z,100520.13
2022-09-30T21:24:28.804Z,100529.16
2022-09-30T21:26:58.591Z,100523.81
2022-09-30T21:29:27.528Z,100528.34
2022-09-30T21:31:56.303Z,100527.50
2022-09-30T21:34:24.780Z,100527.50
2022-09-30T21:36:53.050Z,100529.31
2022-09-30T21:39:21.271Z,100531.16
2022-09-30T21:41:49.495Z,100527.50
2022-09-30T21:44:19.150Z,100526.47
2022-09-30T21:46:48.777Z,100523.00
2022-09-30T21:49:19.090Z,100525.81
2022-09-30T21:51:48.152Z,100530.16
2022-09-30T21:54:17.565Z,100531.16
2022-09-30T21:56:45.900Z,100529.47
2022-09-30T21:59:14.810Z,100536.50
2022-09-30T22:01:44.966Z,100533.00
2022-09-30T22:04:13.415Z,100534.00
2022-09-30T22:06:41.783Z,100545.50
2022-09-30T22:09:10.030Z,100539.34
2022-09-30T22:11:38.342Z,100527.81
2022-09-30T22:14:07.092Z,100530.47
2022-09-30T22:16:36.057Z,100538.50
2022-09-30T22:19:07.496Z,100541.16
2022-09-30T22:21:37.776Z,100531.50
2022-09-30T22:24:08.100Z,100534.16
2022-09-30T22:26:37.335Z,100538.50
2022-09-30T22:29:12.313Z,100536.84
2022-09-30T22:31:41.187Z,100530.66
2022-09-30T22:34:32.126Z,100534.16
2022-09-30T22:37:18.162Z,100525.16
2022-09-30T22:39:46.355Z,100519.97
2022-09-30T22:42:14.793Z,100528.81
2022-09-30T22:44:43.087Z,100530.66
2022-09-30T22:47:12.012Z,100532.47
2022-09-30T22:49:41.737Z,100535.16
2022-09-30T22:52:10.464Z,100545.81
2022-09-30T22:54:38.738Z,100537.81
2022-09-30T22:57:09.291Z,100542.97
2022-09-30T22:59:37.688Z,100536.84
2022-09-30T23:02:06.250Z,100536.84
2022-09-30T23:04:34.824Z,100541.16
2022-09-30T23:07:08.318Z,100545.50
2022-09-30T23:09:36.530Z,100540.16
2022-09-30T23:12:05.365Z,100542.81
2022-09-30T23:14:33.579Z,100542.97
2022-09-30T23:17:01.888Z,100542.16
2022-09-30T23:19:30.097Z,100550.19
2022-09-30T23:21:58.456Z,100538.66
2022-09-30T23:24:30.395Z,100553.00
2022-09-30T23:27:00.188Z,100556.50
2022-09-30T23:29:28.470Z,100550.34
2022-09-30T23:31:56.780Z,100547.00
2022-09-30T23:34:25.298Z,100542.50
2022-09-30T23:36:53.529Z,100548.84
2022-09-30T23:39:21.975Z,100555.00
2022-09-30T23:41:52.008Z,100554.19
2022-09-30T23:44:20.297Z,100550.66
2022-09-30T23:47:02.676Z,100548.00
2022-09-30T23:49:36.010Z,100545.34
2022-09-30T23:52:09.066Z,100546.19
2022-09-30T23:54:40.173Z,100544.47
2022-09-30T23:57:10.750Z,100549.81
2022-09-30T23:59:39.401Z,100547.16
